Time;durP1;ratioP1;P1;durP2;ratioP2;P2;SDS_P1;SDS_P2;PMS_P1;PMS_P2;Temp;Humidity;BMP_temperature;BMP_pressure;BME280_temperature;BME280_humidity;BME280_pressure;Samples;Min_cycle;Max_cycle;Signal;HPM_P1;HPM_P2
2023/10/12 00:01:57;;;;;;;0.50;0.40;;;15.70;99.90;;;;;;5027681;28;20447;-80
2023/10/12 00:04:50;;;;;;;0.90;0.73;;;15.60;99.90;;;;;;5046487;28;20470;-82
2023/10/12 00:07:16;;;;;;;2.83;1.60;;;15.60;99.90;;;;;;5046080;28;20463;-81
2023/10/12 00:09:49;;;;;;;0.40;0.30;;;15.60;99.90;;;;;;5039471;28;20442;-78
2023/10/12 00:12:24;;;;;;;0.40;0.20;;;15.50;99.90;;;;;;5042056;28;20473;-79
2023/10/12 00:14:56;;;;;;;0.53;0.53;;;15.50;99.90;;;;;;5051754;28;20469;-84
2023/10/12 00:17:26;;;;;;;0.73;0.73;;;15.40;99.90;;;;;;5032889;28;20439;-80
2023/10/12 00:19:52;;;;;;;0.50;0.43;;;15.40;99.90;;;;;;5051743;28;20439;-81
2023/10/12 00:22:18;;;;;;;0.50;0.50;;;15.40;99.90;;;;;;5042238;28;20442;-82
2023/10/12 00:24:46;;;;;;;0.60;0.40;;;15.30;99.90;;;;;;5025635;28;20216;-80
2023/10/12 00:27:14;;;;;;;0.50;0.40;;;15.30;99.90;;;;;;5045853;28;20300;-81
2023/10/12 00:29:39;;;;;;;0.40;0.30;;;15.30;99.90;;;;;;5036514;28;20523;-79
2023/10/12 00:32:06;;;;;;;1.63;1.33;;;15.20;99.90;;;;;;5049291;28;20480;-83
2023/10/12 00:34:46;;;;;;;0.70;0.70;;;15.10;99.90;;;;;;5030081;28;20232;-80
2023/10/12 00:37:12;;;;;;;0.50;0.33;;;15.10;99.90;;;;;;5030580;28;20541;-83
2023/10/12 00:42:24;;;;;;;0.97;0.50;;;15.20;99.90;;;;;;5050682;28;20482;-81
2023/10/12 00:44:53;;;;;;;0.40;0.33;;;15.10;99.90;;;;;;5025494;28;20502;-80
2023/10/12 00:50:11;;;;;;;0.40;0.30;;;15.10;99.90;;;;;;5050664;28;20644;-82
2023/10/12 00:52:52;;;;;;;0.40;0.30;;;15.10;99.90;;;;;;5047770;28;20433;-80
2023/10/12 00:55:21;;;;;;;0.50;0.50;;;15.00;99.90;;;;;;5025933;28;20460;-79
2023/10/12 00:57:49;;;;;;;0.93;0.53;;;15.00;99.90;;;;;;5042887;28;20436;-80
2023/10/12 01:00:16;;;;;;;1.00;1.00;;;15.00;99.90;;;;;;5021651;28;21112;-80
2023/10/12 01:02:44;;;;;;;0.97;0.97;;;14.90;99.90;;;;;;5018809;28;21125;-84
2023/10/12 01:05:11;;;;;;;0.50;0.30;;;14.90;99.90;;;;;;5036446;28;20487;-78
2023/10/12 01:07:38;;;;;;;0.80;0.30;;;14.80;99.90;;;;;;5019769;28;20470;-79
2023/10/12 01:10:10;;;;;;;0.40;0.23;;;14.90;99.90;;;;;;5040208;28;20502;-79
2023/10/12 01:12:36;;;;;;;0.83;0.83;;;14.90;99.90;;;;;;5037136;28;20439;-77
2023/10/12 01:15:12;;;;;;;0.40;0.30;;;14.90;99.90;;;;;;5059403;28;20470;-78
2023/10/12 01:17:40;;;;;;;0.60;0.40;;;;;;;;;;5045560;28;20196;-79
2023/10/12 01:20:16;;;;;;;0.40;0.20;;;14.90;99.90;;;;;;5041091;28;20467;-82
2023/10/12 01:22:42;;;;;;;1.80;1.70;;;14.90;99.90;;;;;;5039412;28;20447;-75
2023/10/12 01:25:19;;;;;;;0.40;0.30;;;15.00;99.90;;;;;;5043976;28;20487;-82
2023/10/12 01:27:48;;;;;;;0.50;0.50;;;14.80;99.90;;;;;;5041377;28;20696;-81
2023/10/12 01:30:22;;;;;;;0.40;0.30;;;14.70;99.90;;;;;;5035956;28;20436;-78
2023/10/12 01:32:57;;;;;;;1.17;1.03;;;14.70;99.90;;;;;;5036676;28;20538;-78
2023/10/12 01:35:32;;;;;;;0.40;0.30;;;14.80;99.90;;;;;;5042547;28;20459;-81
2023/10/12 01:38:01;;;;;;;2.03;1.93;;;14.90;99.90;;;;;;5039039;28;21570;-79
2023/10/12 01:40:41;;;;;;;0.60;0.40;;;14.80;99.90;;;;;;5041697;28;20431;-77
2023/10/12 01:43:12;;;;;;;1.77;0.73;;;14.90;99.90;;;;;;5039147;28;20540;-78
2023/10/12 01:45:41;;;;;;;0.40;0.30;;;14.90;99.90;;;;;;5039366;28;20463;-85
2023/10/12 01:48:11;;;;;;;0.40;0.20;;;15.00;99.90;;;;;;5038537;28;20461;-79
2023/10/12 01:50:38;;;;;;;0.40;0.30;;;14.90;99.90;;;;;;5037184;28;22853;-80
2023/10/12 01:53:29;;;;;;;0.40;0.20;;;15.00;99.90;;;;;;5038313;28;20937;-80
2023/10/12 01:55:55;;;;;;;1.57;0.60;;;15.00;99.90;;;;;;5037523;28;20451;-81
2023/10/12 01:58:27;;;;;;;2.30;0.80;;;15.10;99.90;;;;;;5023187;28;20443;-79
2023/10/12 02:01:05;;;;;;;0.40;0.30;;;15.10;99.90;;;;;;5043243;28;20180;-81
2023/10/12 02:03:31;;;;;;;1.90;1.80;;;15.00;99.90;;;;;;5041881;28;20462;-79
2023/10/12 02:06:13;;;;;;;0.40;0.30;;;15.00;99.90;;;;;;5013502;28;21837;-77
2023/10/12 02:08:45;;;;;;;0.60;0.47;;;15.00;99.90;;;;;;5038256;28;20442;-80
2023/10/12 02:13:47;;;;;;;1.00;0.47;;;15.10;99.90;;;;;;5041102;28;21027;-78
2023/10/12 02:16:13;;;;;;;3.60;1.07;;;15.10;99.90;;;;;;5043152;28;20439;-84
2023/10/12 02:18:40;;;;;;;0.40;0.40;;;14.90;99.90;;;;;;5044209;28;20435;-85
2023/10/12 02:26:35;;;;;;;0.40;0.30;;;14.60;99.90;;;;;;5042483;28;20224;-81
2023/10/12 02:29:11;;;;;;;0.93;0.87;;;14.30;99.90;;;;;;5042635;28;20538;-79
2023/10/12 02:31:54;;;;;;;0.60;0.50;;;14.20;99.90;;;;;;5022090;28;20482;-84
2023/10/12 02:34:25;;;;;;;0.40;0.30;;;14.10;99.90;;;;;;5036584;28;20808;-78
2023/10/12 02:39:43;;;;;;;0.40;0.30;;;14.30;99.90;;;;;;5046281;28;20435;-77
2023/10/12 02:47:22;;;;;;;0.60;0.57;;;14.80;99.90;;;;;;5036703;28;20499;-80
2023/10/12 02:52:36;;;;;;;1.07;0.97;;;14.90;99.90;;;;;;5038430;28;20553;-80
2023/10/12 02:55:07;;;;;;;1.53;1.43;;;14.90;99.90;;;;;;5035248;28;20467;-82
2023/10/12 02:57:33;;;;;;;3.07;1.30;;;15.00;99.90;;;;;;5012097;28;20444;-79
2023/10/12 03:00:15;;;;;;;0.63;0.60;;;15.00;99.90;;;;;;5021374;28;21356;-80
2023/10/12 03:02:44;;;;;;;0.40;0.20;;;14.90;99.90;;;;;;5040109;28;20530;-79
2023/10/12 03:05:17;;;;;;;0.40;0.30;;;14.70;99.90;;;;;;5037653;28;20471;-82
2023/10/12 03:07:44;;;;;;;0.40;0.30;;;14.70;99.90;;;;;;5040285;28;20432;-85
2023/10/12 03:10:26;;;;;;;0.40;0.30;;;14.70;99.90;;;;;;5038864;28;21683;-82
2023/10/12 03:12:55;;;;;;;6.73;1.60;;;14.70;99.90;;;;;;5036782;28;20503;-82
2023/10/12 03:15:40;;;;;;;0.50;0.50;;;14.80;99.90;;;;;;5022549;28;20463;-84
2023/10/12 03:18:08;;;;;;;0.40;0.30;;;14.90;99.90;;;;;;5039279;28;20431;-79
2023/10/12 03:20:35;;;;;;;0.50;0.50;;;14.80;99.90;;;;;;5036813;28;20443;-83
2023/10/12 03:23:12;;;;;;;0.40;0.20;;;15.00;99.90;;;;;;5040833;28;20438;-79
2023/10/12 03:25:51;;;;;;;0.40;0.30;;;15.00;99.90;;;;;;5040778;28;20463;-83
2023/10/12 03:28:29;;;;;;;0.40;0.30;;;15.00;99.90;;;;;;5038737;28;20439;-79
2023/10/12 03:33:54;;;;;;;0.60;0.47;;;15.00;99.90;;;;;;5026465;28;20648;-81
2023/10/12 03:36:32;;;;;;;1.13;0.87;;;14.90;99.90;;;;;;5024209;28;20451;-81
2023/10/12 03:52:20;;;;;;;1.50;1.40;;;15.00;99.90;;;;;;5043422;28;20467;-81
2023/10/12 03:57:36;;;;;;;0.60;0.60;;;15.20;99.90;;;;;;5044448;28;20443;-78
2023/10/12 04:03:18;;;;;;;0.50;0.30;;;15.20;99.90;;;;;;5043860;28;20439;-81
2023/10/12 04:05:21;;;;;;;0.93;0.70;;;15.00;99.90;;;;;;5049741;28;20463;-77
2023/10/12 04:13:09;;;;;;;0.83;0.77;;;;;;;;;;5041848;28;20469;-80
2023/10/12 04:18:28;;;;;;;0.50;0.40;;;13.00;99.90;;;;;;5045005;28;20640;-82
2023/10/12 04:20:57;;;;;;;0.50;0.38;;;12.90;99.90;;;;;;5031294;28;20397;-80
2023/10/12 04:28:39;;;;;;;0.40;0.30;;;13.00;99.90;;;;;;5056394;28;21105;-80
2023/10/12 04:36:43;;;;;;;0.40;0.20;;;12.50;99.90;;;;;;4989877;28;20196;-80
2023/10/12 04:39:27;;;;;;;0.40;0.30;;;13.20;99.90;;;;;;5016318;28;20651;-79
2023/10/12 04:42:20;;;;;;;1.27;0.87;;;13.30;99.90;;;;;;5038105;28;20435;-80
2023/10/12 04:44:52;;;;;;;0.40;0.30;;;13.40;99.90;;;;;;5035746;28;20459;-80
2023/10/12 04:47:23;;;;;;;0.70;0.70;;;13.50;99.90;;;;;;5012287;28;20494;-80
2023/10/12 04:54:59;;;;;;;0.60;0.60;;;13.80;99.90;;;;;;5035193;28;20200;-78
2023/10/12 04:57:31;;;;;;;0.80;0.30;;;13.90;99.90;;;;;;5021840;28;20200;-79
2023/10/12 05:00:24;;;;;;;0.57;0.57;;;14.10;99.90;;;;;;5045976;28;20450;-82
2023/10/12 05:07:57;;;;;;;0.60;0.60;;;14.10;99.90;;;;;;5043183;28;20186;-82
2023/10/12 05:13:10;;;;;;;0.40;0.30;;;14.10;99.90;;;;;;5049979;28;20456;-83
2023/10/12 05:15:41;;;;;;;0.50;0.40;;;14.10;99.90;;;;;;5055570;28;20455;-77
2023/10/12 05:18:07;;;;;;;1.43;1.10;;;14.20;99.90;;;;;;5031353;28;20517;-79
2023/10/12 05:20:34;;;;;;;0.50;0.40;;;14.40;99.90;;;;;;5048278;28;20447;-80
2023/10/12 05:23:02;;;;;;;1.57;0.93;;;14.50;99.90;;;;;;5045319;28;20440;-79
2023/10/12 05:25:38;;;;;;;0.40;0.30;;;14.70;99.90;;;;;;5019097;28;20512;-82
2023/10/12 05:28:14;;;;;;;0.93;0.30;;;14.40;99.90;;;;;;5046209;28;20447;-79
2023/10/12 05:30:46;;;;;;;0.40;0.30;;;14.30;99.90;;;;;;5061081;28;20445;-76
2023/10/12 05:33:28;;;;;;;0.40;0.30;;;14.20;99.90;;;;;;5057275;28;20479;-80
2023/10/12 05:35:57;;;;;;;0.40;0.30;;;14.20;99.90;;;;;;5046946;28;20432;-83
2023/10/12 05:38:34;;;;;;;1.73;1.63;;;14.20;99.90;;;;;;5017854;28;20538;-75
2023/10/12 05:41:04;;;;;;;1.17;0.40;;;14.20;99.90;;;;;;5025196;28;20443;-80
2023/10/12 05:43:33;;;;;;;0.40;0.40;;;14.20;99.90;;;;;;5041908;28;20494;-83
2023/10/12 05:46:04;;;;;;;1.03;0.60;;;14.30;99.90;;;;;;5025662;28;20499;-83
2023/10/12 05:48:36;;;;;;;0.40;0.40;;;14.30;99.90;;;;;;5023676;28;20479;-83
2023/10/12 05:51:03;;;;;;;0.70;0.57;;;14.30;99.90;;;;;;5043725;28;20455;-77
2023/10/12 05:53:29;;;;;;;0.50;0.40;;;14.30;99.90;;;;;;5043373;28;20466;-80
2023/10/12 05:55:56;;;;;;;0.70;0.57;;;14.30;99.90;;;;;;5026439;28;20447;-80
2023/10/12 05:58:22;;;;;;;0.40;0.20;;;14.40;99.90;;;;;;5035665;28;20570;-79
2023/10/12 06:00:52;;;;;;;0.70;0.70;;;14.40;99.90;;;;;;5043098;28;20443;-83
2023/10/12 06:03:20;;;;;;;0.40;0.30;;;14.40;99.90;;;;;;5024740;28;20443;-82
2023/10/12 06:05:47;;;;;;;1.60;1.37;;;14.40;99.90;;;;;;5026880;28;20459;-81
2023/10/12 06:08:17;;;;;;;0.73;0.40;;;14.50;99.90;;;;;;5042789;28;20432;-81
2023/10/12 06:10:43;;;;;;;0.60;0.60;;;14.60;99.90;;;;;;5024313;28;20961;-82
2023/10/12 06:13:15;;;;;;;0.40;0.30;;;14.70;99.90;;;;;;5025794;28;20531;-80
2023/10/12 06:15:42;;;;;;;0.90;0.60;;;14.70;99.90;;;;;;5026677;28;20453;-83
2023/10/12 06:18:13;;;;;;;1.33;1.13;;;14.80;99.90;;;;;;5051011;28;20470;-75
2023/10/12 06:20:42;;;;;;;0.80;0.70;;;14.90;99.90;;;;;;5049904;28;20479;-80
2023/10/12 06:23:14;;;;;;;0.53;0.40;;;14.90;99.90;;;;;;5043302;28;20542;-81
2023/10/12 06:25:43;;;;;;;0.60;0.60;;;15.20;99.90;;;;;;5043072;28;20832;-83
2023/10/12 06:28:17;;;;;;;0.57;0.57;;;15.60;99.90;;;;;;5043825;28;20456;-86
2023/10/12 06:30:43;;;;;;;1.17;0.67;;;15.80;99.90;;;;;;5048765;28;21366;-80
2023/10/12 06:33:13;;;;;;;0.40;0.30;;;17.00;99.90;;;;;;5027492;28;20443;-83
2023/10/12 06:35:58;;;;;;;1.03;0.93;;;17.00;99.90;;;;;;5045772;28;20546;-84
2023/10/12 06:38:38;;;;;;;0.50;0.47;;;17.20;99.90;;;;;;5020817;28;20640;-85
2023/10/12 06:46:17;;;;;;;0.87;0.80;;;18.70;99.90;;;;;;5048206;28;20459;-79
2023/10/12 06:48:46;;;;;;;0.60;0.40;;;18.90;99.90;;;;;;5042892;28;20460;-86
2023/10/12 06:51:15;;;;;;;0.40;0.40;;;18.40;99.90;;;;;;5051106;28;20820;-78
2023/10/12 06:53:53;;;;;;;0.50;0.50;;;18.10;99.90;;;;;;5030296;28;20470;-85
2023/10/12 07:04:15;;;;;;;1.27;1.17;;;18.30;99.90;;;;;;5045523;28;20495;-83
2023/10/12 07:06:56;;;;;;;0.50;0.40;;;16.40;99.90;;;;;;5045416;28;20462;-77
2023/10/12 07:09:38;;;;;;;0.47;0.43;;;16.40;99.90;;;;;;5044170;28;20513;-81
2023/10/12 07:12:10;;;;;;;0.40;0.30;;;16.50;99.90;;;;;;5048762;28;20435;-81
2023/10/12 07:14:43;;;;;;;0.40;0.30;;;16.70;99.90;;;;;;5030862;28;20469;-77
2023/10/12 07:17:09;;;;;;;1.37;0.63;;;16.80;99.90;;;;;;5047109;28;20478;-85
2023/10/12 07:19:41;;;;;;;0.73;0.73;;;16.80;99.90;;;;;;5032030;28;20436;-78
2023/10/12 07:22:13;;;;;;;0.40;0.30;;;16.90;99.90;;;;;;5048386;28;20454;-81
2023/10/12 07:24:39;;;;;;;0.40;0.30;;;17.00;99.90;;;;;;5044247;28;20987;-79
2023/10/12 07:27:11;;;;;;;1.57;1.10;;;16.90;99.90;;;;;;5050798;28;20557;-79
2023/10/12 07:29:44;;;;;;;0.90;0.40;;;16.60;99.90;;;;;;5028612;28;20189;-80
2023/10/12 07:34:54;;;;;;;0.80;0.53;;;16.30;99.90;;;;;;5041277;28;20463;-82
2023/10/12 07:37:20;;;;;;;0.40;0.30;;;16.40;99.90;;;;;;5025736;28;21059;-81
2023/10/12 07:39:46;;;;;;;1.23;0.80;;;16.30;99.90;;;;;;5024034;28;20447;-81
2023/10/12 07:42:24;;;;;;;0.50;0.40;;;16.40;99.90;;;;;;5025351;28;20992;-86
2023/10/12 07:45:05;;;;;;;1.27;0.67;;;16.50;99.90;;;;;;5042743;28;20201;-79
2023/10/12 07:47:32;;;;;;;0.80;0.80;;;;;;;;;;5051359;28;20458;-84
2023/10/12 07:50:12;;;;;;;1.10;0.77;;;16.80;99.90;;;;;;5045201;28;20458;-81
2023/10/12 07:52:48;;;;;;;0.90;0.70;;;16.70;99.90;;;;;;5046732;28;20817;-79
2023/10/12 07:55:16;;;;;;;0.70;0.70;;;16.60;99.90;;;;;;5031806;28;20211;-79
2023/10/12 07:57:41;;;;;;;0.77;0.77;;;16.80;99.90;;;;;;5048374;28;20443;-82
2023/10/12 08:21:31;;;;;;;0.50;0.33;;;17.00;99.90;;;;;;5056531;28;20431;-76
2023/10/12 08:24:45;;;;;;;0.83;0.70;;;17.50;99.90;;;;;;5050103;28;20486;-79
2023/10/12 08:29:18;;;;;;;1.90;1.17;;;17.90;99.90;;;;;;5059193;28;20427;-79
2023/10/12 08:31:44;;;;;;;1.80;1.43;;;17.90;99.90;;;;;;5051049;28;20224;-81
2023/10/12 08:34:13;;;;;;;0.70;0.50;;;18.00;99.90;;;;;;5030831;28;20440;-76
2023/10/12 08:37:27;;;;;;;0.73;0.70;;;18.10;99.90;;;;;;5057555;28;20475;-82
2023/10/12 08:39:37;;;;;;;0.90;0.60;;;18.10;99.90;;;;;;5038002;28;20451;-79
2023/10/12 08:44:58;;;;;;;0.60;0.60;;;17.80;99.90;;;;;;5047927;28;20558;-84
2023/10/12 08:47:26;;;;;;;0.50;0.43;;;18.00;99.90;;;;;;5022433;28;20491;-79
2023/10/12 08:50:02;;;;;;;0.70;0.67;;;18.00;99.90;;;;;;5024127;28;20440;-82
2023/10/12 08:52:28;;;;;;;2.20;1.87;;;18.10;99.90;;;;;;5028895;28;20526;-84
2023/10/12 08:55:11;;;;;;;0.97;0.97;;;18.20;99.90;;;;;;5028275;28;20452;-78
2023/10/12 08:57:55;;;;;;;2.00;0.97;;;18.40;99.90;;;;;;5034211;28;20470;-78
2023/10/12 09:00:39;;;;;;;0.83;0.37;;;18.60;99.90;;;;;;5050964;28;21015;-88
2023/10/12 09:03:07;;;;;;;0.50;0.40;;;18.80;99.90;;;;;;5030912;28;20433;-77
2023/10/12 09:05:34;;;;;;;1.17;0.90;;;19.10;99.90;;;;;;5037865;28;20618;-82
2023/10/12 09:10:51;;;;;;;1.17;1.10;;;19.10;99.90;;;;;;5048663;28;20939;-82
2023/10/12 09:13:21;;;;;;;0.57;0.50;;;19.50;99.90;;;;;;5031908;28;20486;-79
2023/10/12 09:15:55;;;;;;;0.67;0.67;;;19.50;99.90;;;;;;5050437;28;20980;-79
2023/10/12 09:18:29;;;;;;;0.53;0.50;;;19.50;99.90;;;;;;5024118;28;20447;-80
2023/10/12 09:31:26;;;;;;;2.53;2.33;;;20.30;99.90;;;;;;5049771;28;20185;-84
2023/10/12 09:34:31;;;;;;;1.37;1.27;;;20.00;99.90;;;;;;5027590;28;20456;-82
2023/10/12 09:36:53;;;;;;;6.93;0.70;;;19.60;99.90;;;;;;5046992;28;20529;-84
2023/10/12 09:39:24;;;;;;;1.63;1.37;;;19.50;99.90;;;;;;5039696;28;20435;-85
2023/10/12 09:41:59;;;;;;;1.70;1.60;;;19.40;99.90;;;;;;5047600;28;20962;-82
2023/10/12 09:44:27;;;;;;;3.33;0.80;;;19.40;99.90;;;;;;5037715;28;20454;-86
2023/10/12 09:46:57;;;;;;;1.73;1.13;;;19.70;99.90;;;;;;5056209;28;20459;-83
2023/10/12 09:49:27;;;;;;;0.70;0.60;;;19.50;99.90;;;;;;5062546;28;20451;-80
2023/10/12 09:52:13;;;;;;;4.00;2.13;;;19.30;99.90;;;;;;5064144;28;20455;-83
2023/10/12 09:54:48;;;;;;;0.40;0.30;;;19.20;99.90;;;;;;5033047;28;20514;-83
2023/10/12 09:57:28;;;;;;;0.60;0.60;;;19.00;99.90;;;;;;5032383;28;20439;-83
2023/10/12 09:59:59;;;;;;;1.50;0.80;;;18.80;99.90;;;;;;5033849;28;20853;-80
2023/10/12 10:02:28;;;;;;;0.73;0.60;;;18.70;99.90;;;;;;5026067;28;21075;-82
2023/10/12 10:07:55;;;;;;;0.93;0.83;;;19.20;99.90;;;;;;5058780;28;20478;-79
2023/10/12 10:10:33;;;;;;;0.50;0.40;;;19.60;99.90;;;;;;5056758;28;20890;-81
2023/10/12 10:13:00;;;;;;;0.60;0.43;;;19.90;99.90;;;;;;5051011;28;20435;-85
2023/10/12 10:15:36;;;;;;;0.60;0.60;;;20.20;99.90;;;;;;5052414;28;20462;-85
2023/10/12 10:18:05;;;;;;;2.63;2.43;;;20.40;99.90;;;;;;5048374;28;20447;-78
2023/10/12 10:21:15;;;;;;;2.33;1.27;;;20.50;99.90;;;;;;5058567;28;20466;-81
2023/10/12 10:23:22;;;;;;;0.50;0.43;;;20.30;99.90;;;;;;5047795;28;20971;-82
2023/10/12 10:26:16;;;;;;;0.40;0.30;;;20.50;99.90;;;;;;5037883;28;20486;-80
2023/10/12 10:28:54;;;;;;;0.50;0.40;;;20.60;99.90;;;;;;5063171;28;20543;-84
2023/10/12 10:31:28;;;;;;;2.50;2.30;;;20.60;99.90;;;;;;5029440;28;20445;-82
2023/10/12 10:33:57;;;;;;;0.50;0.43;;;20.50;99.90;;;;;;5030867;28;20505;-84
2023/10/12 10:36:24;;;;;;;0.70;0.63;;;;;;;;;;5032439;28;20482;-81
2023/10/12 10:41:18;;;;;;;0.70;0.70;;;20.70;99.90;;;;;;5053555;28;20496;-82
2023/10/12 10:43:45;;;;;;;1.07;0.70;;;20.80;99.90;;;;;;5050542;28;20463;-77
2023/10/12 10:46:11;;;;;;;1.00;0.60;;;21.00;99.90;;;;;;5045894;28;20486;-81
2023/10/12 10:48:38;;;;;;;0.43;0.43;;;21.20;99.90;;;;;;5050208;28;20974;-81
2023/10/12 10:51:11;;;;;;;0.40;0.30;;;21.40;99.90;;;;;;5045715;28;20444;-85
2023/10/12 10:53:38;;;;;;;2.20;1.07;;;21.70;99.90;;;;;;5045702;28;20478;-83
2023/10/12 10:56:13;;;;;;;0.70;0.70;;;22.50;99.90;;;;;;5046936;28;20812;-83
2023/10/12 10:58:45;;;;;;;0.73;0.73;;;22.50;99.90;;;;;;5042833;28;20592;-81
2023/10/12 11:01:15;;;;;;;1.07;1.07;;;22.60;99.90;;;;;;5050806;28;20941;-78
2023/10/12 11:03:43;;;;;;;0.60;0.60;;;23.00;99.90;;;;;;5048354;28;20456;-82
2023/10/12 11:06:21;;;;;;;1.83;1.40;;;23.30;99.90;;;;;;5028720;28;20549;-81
2023/10/12 11:09:06;;;;;;;3.33;1.23;;;23.60;99.90;;;;;;5026410;28;20441;-81
2023/10/12 11:11:44;;;;;;;2.93;2.73;;;23.60;99.90;;;;;;5037856;28;20477;-77
2023/10/12 11:14:12;;;;;;;1.67;1.57;;;23.40;99.90;;;;;;5067407;28;20478;-80
2023/10/12 11:16:43;;;;;;;2.37;1.37;;;22.80;99.90;;;;;;5033063;28;20487;-82
2023/10/12 11:19:09;;;;;;;0.90;0.40;;;22.80;99.90;;;;;;5036903;28;20439;-81
2023/10/12 11:21:35;;;;;;;1.80;1.70;;;22.60;99.90;;;;;;5028510;28;20436;-84
2023/10/12 11:24:03;;;;;;;1.80;1.23;;;22.50;99.90;;;;;;5030767;28;20462;-80
2023/10/12 11:26:38;;;;;;;3.70;2.00;;;22.60;99.90;;;;;;5046105;28;20232;-82
2023/10/12 11:29:06;;;;;;;1.33;1.23;;;22.60;99.90;;;;;;5021023;28;20456;-82
2023/10/12 11:31:36;;;;;;;0.50;0.40;;;22.60;99.90;;;;;;5048501;28;20431;-83
2023/10/12 11:34:11;;;;;;;1.63;1.13;;;22.40;99.90;;;;;;5050246;28;20463;-78
2023/10/12 11:36:37;;;;;;;0.90;0.90;;;22.30;99.90;;;;;;5055837;28;20502;-80
2023/10/12 11:39:09;;;;;;;1.57;0.60;;;22.10;99.90;;;;;;5047374;28;20506;-80
2023/10/12 11:41:36;;;;;;;0.40;0.30;;;22.00;99.90;;;;;;5047117;28;20257;-81
2023/10/12 11:44:05;;;;;;;1.03;1.03;;;21.80;99.90;;;;;;5031934;28;20495;-80
2023/10/12 11:46:43;;;;;;;0.50;0.30;;;22.00;99.90;;;;;;5032278;28;20458;-83
2023/10/12 11:49:12;;;;;;;0.40;0.30;;;22.40;99.90;;;;;;5056203;28;21027;-81
2023/10/12 11:52:14;;;;;;;0.80;0.50;;;22.40;99.90;;;;;;5054854;28;20465;-79
2023/10/12 11:54:33;;;;;;;0.73;0.50;;;22.00;99.90;;;;;;5052878;28;21514;-79
2023/10/12 11:56:58;;;;;;;1.50;0.97;;;22.20;99.90;;;;;;5059106;28;20439;-82
2023/10/12 11:59:30;;;;;;;0.53;0.47;;;22.30;99.90;;;;;;5052910;28;20993;-84
2023/10/12 12:02:00;;;;;;;0.60;0.40;;;22.20;99.90;;;;;;5031634;28;20585;-83
2023/10/12 12:04:50;;;;;;;1.87;0.90;;;22.10;99.90;;;;;;5050502;28;21079;-82
2023/10/12 12:07:13;;;;;;;1.63;0.47;;;22.10;99.90;;;;;;5049683;28;20494;-78
2023/10/12 12:09:48;;;;;;;0.50;0.50;;;22.10;99.90;;;;;;5049620;28;20443;-80
2023/10/12 12:12:16;;;;;;;1.00;0.90;;;22.00;99.90;;;;;;5029580;28;20438;-78
2023/10/12 12:14:49;;;;;;;0.40;0.30;;;;;;;;;;5047571;28;20455;-80
2023/10/12 12:17:18;;;;;;;0.63;0.63;;;22.20;99.90;;;;;;5028635;28;20451;-79
2023/10/12 12:19:44;;;;;;;0.87;0.57;;;22.20;99.90;;;;;;5035904;28;20436;-83
2023/10/12 12:22:16;;;;;;;0.50;0.50;;;22.10;99.90;;;;;;5054496;28;20454;-81
2023/10/12 12:24:44;;;;;;;0.50;0.40;;;22.00;99.90;;;;;;5030848;28;20473;-79
2023/10/12 12:29:57;;;;;;;3.90;1.53;;;22.00;99.90;;;;;;5051485;28;21097;-81
2023/10/12 12:32:26;;;;;;;2.47;1.57;;;22.00;99.90;;;;;;5034497;28;20441;-79
2023/10/12 12:34:54;;;;;;;0.50;0.33;;;21.90;99.90;;;;;;5050884;28;20487;-82
2023/10/12 12:37:20;;;;;;;0.53;0.40;;;21.90;99.90;;;;;;5033538;28;20459;-76
2023/10/12 12:40:01;;;;;;;0.70;0.60;;;21.80;99.90;;;;;;5051778;28;20447;-81
2023/10/12 12:42:29;;;;;;;2.00;0.93;;;;;;;;;;5052405;28;20439;-80
2023/10/12 12:44:55;;;;;;;0.50;0.40;;;21.80;99.90;;;;;;5053712;28;20730;-80
2023/10/12 12:47:23;;;;;;;0.50;0.40;;;21.80;99.90;;;;;;5033137;28;20899;-83
2023/10/12 12:49:48;;;;;;;0.87;0.57;;;22.00;99.90;;;;;;5029484;28;20177;-80
2023/10/12 12:52:17;;;;;;;0.83;0.50;;;22.10;99.90;;;;;;5031628;28;20438;-82
2023/10/12 12:54:44;;;;;;;1.63;1.53;;;22.00;99.90;;;;;;5039600;28;20258;-80
2023/10/12 12:57:13;;;;;;;0.40;0.30;;;22.00;99.90;;;;;;5050833;28;20435;-80
2023/10/12 12:59:38;;;;;;;0.70;0.70;;;22.00;99.90;;;;;;5046125;28;20479;-78
2023/10/12 13:02:04;;;;;;;1.83;0.90;;;;;;;;;;5059693;28;20455;-78
2023/10/12 13:04:30;;;;;;;1.43;1.33;;;;;;;;;;5028494;28;20703;-79
2023/10/12 13:06:56;;;;;;;3.70;0.80;;;22.00;99.90;;;;;;5046580;28;20470;-80
2023/10/12 13:09:33;;;;;;;0.97;0.87;;;22.30;99.90;;;;;;5048233;28;20441;-83
2023/10/12 13:11:59;;;;;;;0.50;0.40;;;;;;;;;;5049027;28;20756;-78
2023/10/12 13:14:28;;;;;;;0.83;0.73;;;22.70;99.90;;;;;;5046150;28;20459;-81
2023/10/12 13:16:54;;;;;;;0.70;0.70;;;22.70;99.90;;;;;;5048087;28;20477;-80
2023/10/12 13:19:20;;;;;;;1.00;0.73;;;22.70;99.90;;;;;;5046635;28;20470;-79
2023/10/12 13:21:46;;;;;;;1.93;0.97;;;22.80;99.90;;;;;;5049503;28;20534;-78
2023/10/12 13:24:12;;;;;;;1.57;0.60;;;;;;;;;;5054148;28;20847;-81
2023/10/12 13:26:43;;;;;;;1.00;0.60;;;;;;;;;;5050369;28;20213;-77
2023/10/12 13:29:13;;;;;;;1.43;1.00;;;22.70;99.90;;;;;;5051877;28;21164;-79
2023/10/12 13:31:39;;;;;;;0.50;0.40;;;22.70;99.90;;;;;;5040645;28;20439;-81
2023/10/12 13:34:06;;;;;;;0.50;0.40;;;23.00;99.90;;;;;;5028385;28;20547;-84
2023/10/12 13:36:32;;;;;;;1.37;0.53;;;23.10;99.90;;;;;;5046713;28;20522;-85
2023/10/12 13:38:59;;;;;;;0.80;0.73;;;23.10;99.90;;;;;;5029492;28;20444;-82
2023/10/12 13:41:25;;;;;;;0.60;0.50;;;22.90;99.90;;;;;;5029874;28;20458;-78
2023/10/12 13:43:51;;;;;;;0.80;0.70;;;23.00;99.90;;;;;;5046980;28;20454;-81
2023/10/12 13:46:16;;;;;;;1.17;1.07;;;23.10;99.90;;;;;;5028364;28;20228;-79
2023/10/12 13:48:42;;;;;;;1.57;1.37;;;23.20;99.90;;;;;;5046695;28;20217;-76
2023/10/12 13:51:17;;;;;;;0.60;0.60;;;23.20;99.90;;;;;;5029735;28;20192;-77
2023/10/12 13:53:45;;;;;;;1.10;0.90;;;23.10;99.90;;;;;;5033492;28;20202;-82
2023/10/12 13:56:12;;;;;;;0.60;0.40;;;23.30;99.90;;;;;;5048911;28;20976;-81
2023/10/12 13:58:39;;;;;;;1.10;0.87;;;23.10;99.90;;;;;;5028324;28;21184;-84
2023/10/12 14:01:13;;;;;;;0.77;0.77;;;23.10;99.90;;;;;;5048118;28;20444;-84
2023/10/12 14:03:41;;;;;;;0.87;0.87;;;23.10;99.90;;;;;;5062978;28;20524;-76
2023/10/12 14:06:07;;;;;;;0.50;0.50;;;23.20;99.90;;;;;;5057205;28;20512;-79
2023/10/12 14:08:40;;;;;;;2.60;2.13;;;23.40;99.90;;;;;;5059256;28;20463;-76
2023/10/12 14:11:06;;;;;;;0.57;0.43;;;23.70;99.90;;;;;;5061618;28;20173;-77
2023/10/12 14:13:33;;;;;;;1.93;0.97;;;24.20;99.90;;;;;;5050639;28;20442;-80
2023/10/12 14:15:59;;;;;;;0.50;0.43;;;24.20;99.90;;;;;;5031211;28;20553;-84
2023/10/12 14:18:28;;;;;;;1.60;1.20;;;24.30;99.90;;;;;;5028269;28;20438;-79
2023/10/12 14:20:55;;;;;;;0.73;0.60;;;24.40;99.90;;;;;;5045499;28;20441;-80
2023/10/12 14:23:25;;;;;;;1.03;0.50;;;;;;;;;;5027656;28;20451;-81
2023/10/12 14:25:51;;;;;;;0.40;0.30;;;24.50;99.90;;;;;;5021760;28;20463;-85
2023/10/12 14:28:18;;;;;;;2.57;1.10;;;24.10;99.90;;;;;;5048421;28;20436;-84
2023/10/12 14:30:47;;;;;;;0.83;0.70;;;23.90;99.90;;;;;;5028249;28;20440;-82
2023/10/12 14:33:20;;;;;;;0.70;0.60;;;23.70;99.90;;;;;;5039361;28;20512;-79
2023/10/12 14:35:48;;;;;;;1.63;1.07;;;23.70;99.90;;;;;;5036576;28;20500;-77
2023/10/12 14:38:14;;;;;;;0.63;0.63;;;23.80;99.90;;;;;;5038365;28;20466;-83
2023/10/12 14:40:42;;;;;;;2.40;1.60;;;23.90;99.90;;;;;;5041509;28;20448;-81
2023/10/12 14:43:12;;;;;;;1.30;1.07;;;23.50;99.90;;;;;;5044879;28;20424;-82
2023/10/12 14:45:47;;;;;;;1.97;1.10;;;23.30;99.90;;;;;;5045888;28;21109;-80
2023/10/12 14:48:13;;;;;;;0.60;0.60;;;23.00;99.90;;;;;;5026915;28;20443;-79
2023/10/12 14:50:45;;;;;;;0.60;0.40;;;23.00;99.90;;;;;;5047270;28;20534;-78
2023/10/12 14:53:21;;;;;;;0.50;0.30;;;23.00;99.90;;;;;;5028419;28;20197;-83
2023/10/12 14:55:53;;;;;;;0.63;0.57;;;22.90;99.90;;;;;;5030859;28;20469;-80
2023/10/12 14:58:19;;;;;;;1.00;0.47;;;22.70;99.90;;;;;;5018785;28;20446;-82
2023/10/12 15:00:45;;;;;;;1.33;0.93;;;22.20;99.90;;;;;;5023704;28;20498;-81
2023/10/12 15:03:15;;;;;;;1.67;0.73;;;22.10;99.90;;;;;;5023956;28;20593;-79
2023/10/12 15:05:41;;;;;;;1.07;0.93;;;21.90;99.90;;;;;;5027620;28;20472;-81
2023/10/12 15:08:07;;;;;;;3.23;1.40;;;21.70;99.90;;;;;;5043668;28;20886;-82
2023/10/12 15:10:43;;;;;;;0.80;0.60;;;21.80;99.90;;;;;;5045342;28;20185;-79
2023/10/12 15:13:11;;;;;;;1.33;0.77;;;21.50;99.90;;;;;;5030056;28;20446;-82
2023/10/12 15:15:38;;;;;;;0.60;0.60;;;21.40;99.90;;;;;;5055287;28;20450;-78
2023/10/12 15:18:04;;;;;;;0.63;0.63;;;21.30;99.90;;;;;;5043348;28;20458;-79
2023/10/12 15:20:31;;;;;;;0.60;0.60;;;21.30;99.90;;;;;;5043350;28;20443;-77
2023/10/12 15:22:57;;;;;;;1.97;1.07;;;21.20;99.90;;;;;;5047609;28;20906;-82
2023/10/12 15:25:23;;;;;;;0.83;0.77;;;21.00;99.90;;;;;;5060088;28;20485;-76
2023/10/12 15:27:49;;;;;;;1.07;0.97;;;21.00;99.90;;;;;;5062346;28;21037;-78
2023/10/12 15:30:16;;;;;;;1.00;1.00;;;21.10;99.90;;;;;;5052441;28;20189;-82
2023/10/12 15:32:42;;;;;;;0.80;0.80;;;21.10;99.90;;;;;;5062585;28;20451;-79